Time;durP1;ratioP1;P1;durP2;ratioP2;P2;SDS_P1;SDS_P2;PMS_P1;PMS_P2;Temp;Humidity;BMP_temperature;BMP_pressure;BME280_temperature;BME280_humidity;BME280_pressure;Samples;Min_cycle;Max_cycle;Signal;HPM_P1;HPM_P2
2021/12/02 00:02:11;;;;;;;13.63;7.10;;;4.70;99.90;;;;;;5073493;28;20270;-81
2021/12/02 00:04:38;;;;;;;6.53;4.53;;;4.70;99.90;;;;;;5073779;28;20274;-80
2021/12/02 00:07:06;;;;;;;13.60;7.30;;;4.70;99.90;;;;;;5074353;28;20321;-80
2021/12/02 00:09:33;;;;;;;8.43;4.57;;;4.70;99.90;;;;;;5075018;28;20221;-80
2021/12/02 00:12:00;;;;;;;10.00;4.50;;;4.70;99.90;;;;;;5074534;28;20215;-80
2021/12/02 00:14:27;;;;;;;7.73;4.47;;;4.80;99.90;;;;;;5074811;28;20265;-81
2021/12/02 00:22:11;;;;;;;15.60;9.10;;;4.80;99.90;;;;;;5074254;28;20170;-80
2021/12/02 00:24:39;;;;;;;14.13;6.87;;;4.80;99.90;;;;;;5056646;28;20186;-80
2021/12/02 00:27:09;;;;;;;6.23;3.43;;;4.80;99.90;;;;;;5072905;28;20190;-80
2021/12/02 00:29:36;;;;;;;9.93;5.17;;;4.90;99.90;;;;;;5073394;28;20236;-81
2021/12/02 00:32:06;;;;;;;9.83;5.43;;;4.90;99.90;;;;;;5074345;28;20179;-80
2021/12/02 00:34:32;;;;;;;14.23;8.97;;;4.90;99.90;;;;;;5075883;28;20542;-79
2021/12/02 00:37:00;;;;;;;12.33;6.27;;;4.90;99.90;;;;;;5085838;28;20185;-80
2021/12/02 00:39:27;;;;;;;8.93;6.13;;;4.90;99.90;;;;;;5079633;28;20254;-80
2021/12/02 00:41:55;;;;;;;16.07;8.90;;;5.00;99.90;;;;;;5073125;28;20254;-84
2021/12/02 00:44:21;;;;;;;18.60;9.93;;;5.00;99.90;;;;;;5074234;28;20178;-80
2021/12/02 00:46:47;;;;;;;12.77;6.80;;;5.00;99.90;;;;;;5073074;28;20651;-80
2021/12/02 00:49:15;;;;;;;7.20;4.50;;;5.10;99.90;;;;;;5073025;28;20628;-79
2021/12/02 00:51:45;;;;;;;11.70;5.33;;;5.20;99.90;;;;;;5073246;28;20270;-80
2021/12/02 00:54:12;;;;;;;11.73;6.03;;;5.30;99.90;;;;;;5074093;28;20182;-80
2021/12/02 00:56:39;;;;;;;23.60;12.53;;;5.30;99.90;;;;;;5072445;28;20258;-80
2021/12/02 00:59:07;;;;;;;11.03;6.90;;;5.30;99.90;;;;;;5072804;28;20172;-80
2021/12/02 01:01:35;;;;;;;9.33;5.40;;;5.30;99.90;;;;;;5072910;28;20266;-79
2021/12/02 01:04:05;;;;;;;10.03;7.80;;;5.40;99.90;;;;;;5079195;28;20167;-79
2021/12/02 01:06:30;;;;;;;7.93;6.00;;;5.40;99.90;;;;;;5086247;28;20166;-79
2021/12/02 01:08:56;;;;;;;5.17;3.90;;;5.40;99.90;;;;;;5081559;28;20195;-79
2021/12/02 01:11:22;;;;;;;10.47;6.87;;;5.50;99.90;;;;;;5074294;28;20752;-80
2021/12/02 01:13:49;;;;;;;8.53;4.87;;;5.50;99.90;;;;;;5072849;28;20210;-80
2021/12/02 01:16:16;;;;;;;9.77;4.50;;;5.60;99.90;;;;;;5073199;28;20178;-80
2021/12/02 01:18:42;;;;;;;8.63;4.70;;;5.60;99.90;;;;;;5073876;28;20183;-80
2021/12/02 01:21:12;;;;;;;7.27;4.73;;;5.60;99.90;;;;;;5073207;28;20259;-80
2021/12/02 01:23:39;;;;;;;11.83;4.67;;;5.70;99.90;;;;;;5072970;28;20183;-80
2021/12/02 01:26:07;;;;;;;10.00;4.13;;;5.80;99.90;;;;;;5073267;28;20241;-80
2021/12/02 01:28:34;;;;;;;8.17;4.40;;;5.80;99.90;;;;;;5055790;28;20219;-80
2021/12/02 01:31:00;;;;;;;6.13;4.47;;;5.90;99.90;;;;;;5073372;28;20619;-85
2021/12/02 01:33:27;;;;;;;7.30;3.67;;;5.80;99.90;;;;;;5072148;28;20237;-80
2021/12/02 01:36:02;;;;;;;7.27;3.90;;;5.90;99.90;;;;;;5072492;28;20533;-79
2021/12/02 01:38:30;;;;;;;6.53;4.80;;;5.80;99.90;;;;;;5073262;28;20167;-80
2021/12/02 01:40:58;;;;;;;6.53;4.03;;;5.80;99.90;;;;;;5072567;28;20524;-79
2021/12/02 01:43:51;;;;;;;6.43;3.87;;;5.90;99.90;;;;;;5072289;28;20183;-79
2021/12/02 01:46:25;;;;;;;5.60;4.57;;;6.00;99.90;;;;;;5069956;28;20261;-80
2021/12/02 01:49:02;;;;;;;6.47;4.67;;;5.90;99.90;;;;;;5072112;28;20215;-79
2021/12/02 01:51:29;;;;;;;5.63;4.53;;;5.80;99.90;;;;;;5072322;28;20183;-79
2021/12/02 01:54:09;;;;;;;10.50;4.40;;;5.90;99.90;;;;;;5073330;28;20191;-80
2021/12/02 01:56:46;;;;;;;13.93;6.97;;;5.90;99.90;;;;;;5073328;28;20166;-79
2021/12/02 01:59:26;;;;;;;8.40;4.50;;;5.90;99.90;;;;;;5071858;28;20213;-80
2021/12/02 02:01:56;;;;;;;9.30;3.77;;;5.90;99.90;;;;;;5073274;28;20173;-80
2021/12/02 02:04:23;;;;;;;8.73;4.43;;;5.90;99.90;;;;;;5073304;28;20178;-81
2021/12/02 02:06:59;;;;;;;7.40;3.87;;;5.90;99.90;;;;;;5074351;28;20611;-80
2021/12/02 02:09:28;;;;;;;7.37;4.27;;;6.00;99.90;;;;;;5077275;28;20218;-80
2021/12/02 02:11:54;;;;;;;13.33;5.83;;;6.00;99.90;;;;;;5076822;28;20237;-80
2021/12/02 02:14:21;;;;;;;6.50;4.47;;;6.00;99.90;;;;;;5077057;28;20179;-81
2021/12/02 02:16:48;;;;;;;8.47;4.90;;;6.10;99.90;;;;;;5077102;28;20175;-81
2021/12/02 02:19:14;;;;;;;7.37;4.03;;;6.00;99.90;;;;;;5076408;28;20183;-81
2021/12/02 02:21:41;;;;;;;6.20;4.83;;;6.00;99.90;;;;;;5076870;28;20178;-80
2021/12/02 02:24:12;;;;;;;7.37;5.00;;;6.00;99.90;;;;;;5076946;28;20183;-85
2021/12/02 02:26:38;;;;;;;9.50;4.90;;;5.90;99.90;;;;;;5076028;28;20174;-80
2021/12/02 02:29:06;;;;;;;7.67;4.43;;;6.00;99.90;;;;;;5076791;28;20249;-81
2021/12/02 02:31:33;;;;;;;15.03;4.70;;;5.90;99.90;;;;;;5075263;28;20210;-81
2021/12/02 02:33:59;;;;;;;5.43;4.07;;;6.00;99.90;;;;;;5076407;28;20521;-80
2021/12/02 02:36:28;;;;;;;7.93;5.03;;;6.00;99.90;;;;;;5076308;28;20203;-79
2021/12/02 02:38:57;;;;;;;8.83;4.77;;;6.00;99.90;;;;;;5076563;28;20211;-79
2021/12/02 02:41:26;;;;;;;7.33;4.17;;;6.00;99.90;;;;;;5076212;28;20233;-79
2021/12/02 02:43:56;;;;;;;6.13;4.07;;;6.00;99.90;;;;;;5076605;28;20172;-80
2021/12/02 02:46:51;;;;;;;6.07;4.10;;;6.00;99.90;;;;;;5074966;28;20186;-80
2021/12/02 02:49:17;;;;;;;9.83;4.40;;;6.00;99.90;;;;;;5058607;28;20219;-80
2021/12/02 02:51:44;;;;;;;7.17;4.00;;;6.10;99.90;;;;;;5075345;28;20250;-80
2021/12/02 02:54:14;;;;;;;8.77;4.27;;;6.10;99.90;;;;;;5075117;28;20262;-80
2021/12/02 02:56:50;;;;;;;11.90;4.63;;;6.20;99.90;;;;;;5075988;28;20628;-80
2021/12/02 03:07:23;;;;;;;5.30;3.73;;;6.20;99.90;;;;;;5074929;28;20183;-80
2021/12/02 03:17:11;;;;;;;14.60;6.73;;;6.40;99.90;;;;;;5076110;28;20699;-81
2021/12/02 03:19:43;;;;;;;11.30;6.20;;;6.40;99.90;;;;;;5075149;28;20639;-81
2021/12/02 03:22:10;;;;;;;12.87;6.93;;;6.40;99.90;;;;;;5074748;28;20190;-81
2021/12/02 03:24:36;;;;;;;14.10;6.80;;;6.40;99.90;;;;;;5075272;28;20199;-81
2021/12/02 03:27:01;;;;;;;10.87;6.30;;;6.40;99.90;;;;;;5074587;28;20666;-81
2021/12/02 03:29:27;;;;;;;16.17;5.67;;;6.30;99.90;;;;;;5075317;28;20215;-81
2021/12/02 03:31:53;;;;;;;7.87;5.23;;;6.40;99.90;;;;;;5075502;28;20182;-80
2021/12/02 03:34:19;;;;;;;7.10;4.67;;;6.40;99.90;;;;;;5075125;28;20256;-80
2021/12/02 03:36:44;;;;;;;6.23;4.17;;;6.40;99.90;;;;;;5075740;28;20182;-81
2021/12/02 03:39:11;;;;;;;8.83;4.30;;;6.40;99.90;;;;;;5075100;28;20655;-80
2021/12/02 03:41:39;;;;;;;5.93;3.50;;;6.40;99.90;;;;;;5074221;28;20269;-80
2021/12/02 03:44:06;;;;;;;7.10;3.70;;;6.40;99.90;;;;;;5074231;28;20564;-80
2021/12/02 03:46:32;;;;;;;5.77;3.20;;;6.50;99.90;;;;;;5074747;28;20186;-81
2021/12/02 03:48:59;;;;;;;5.87;3.67;;;6.50;99.90;;;;;;5074187;28;20207;-81
2021/12/02 03:51:25;;;;;;;5.70;3.77;;;;;;;;;;5074970;28;20178;-81
2021/12/02 03:53:51;;;;;;;8.23;4.50;;;6.50;99.90;;;;;;5074181;28;20172;-81
2021/12/02 03:56:17;;;;;;;9.40;3.80;;;6.50;99.90;;;;;;5074021;28;20180;-80
2021/12/02 03:58:45;;;;;;;5.00;3.47;;;6.40;99.90;;;;;;5074494;28;20190;-80
2021/12/02 04:01:13;;;;;;;4.37;2.97;;;6.40;99.90;;;;;;5075187;28;20178;-80
2021/12/02 04:03:39;;;;;;;6.63;3.20;;;6.40;99.90;;;;;;5074911;28;20179;-81
2021/12/02 04:06:06;;;;;;;5.23;3.63;;;6.30;99.90;;;;;;5073780;28;20510;-80
2021/12/02 04:09:19;;;;;;;5.10;3.30;;;6.40;99.90;;;;;;5075244;28;20218;-80
2021/12/02 04:11:30;;;;;;;5.20;3.23;;;6.40;99.90;;;;;;5060601;28;20219;-80
2021/12/02 04:14:07;;;;;;;6.00;3.33;;;;;;;;;;5075206;28;20261;-81
2021/12/02 04:16:35;;;;;;;4.50;3.20;;;6.50;99.90;;;;;;5075365;28;20654;-80
2021/12/02 04:19:02;;;;;;;5.90;3.57;;;6.60;99.90;;;;;;5074955;28;20187;-81
2021/12/02 04:21:29;;;;;;;5.07;3.20;;;;;;;;;;5073840;28;20186;-81
2021/12/02 04:23:55;;;;;;;10.00;3.23;;;6.50;99.90;;;;;;5074785;28;20175;-80
2021/12/02 04:26:21;;;;;;;5.93;3.00;;;6.40;99.90;;;;;;5080561;28;20182;-80
2021/12/02 04:28:46;;;;;;;4.50;2.73;;;6.50;99.90;;;;;;5083505;28;20211;-80
2021/12/02 04:31:12;;;;;;;4.77;3.07;;;6.50;99.90;;;;;;5076325;28;20772;-81
2021/12/02 04:33:38;;;;;;;4.90;3.00;;;6.50;99.90;;;;;;5072882;28;20190;-81
2021/12/02 04:36:04;;;;;;;4.23;3.00;;;6.60;99.90;;;;;;5074852;28;20178;-81
2021/12/02 04:38:30;;;;;;;4.47;2.90;;;6.60;99.90;;;;;;5074877;28;20207;-80
2021/12/02 04:40:57;;;;;;;7.73;3.67;;;6.60;99.90;;;;;;5074981;28;20179;-80
2021/12/02 04:43:23;;;;;;;5.90;3.40;;;6.60;99.90;;;;;;5073378;28;20252;-81
2021/12/02 04:45:49;;;;;;;6.77;3.30;;;6.50;99.90;;;;;;5074814;28;20190;-80
2021/12/02 04:48:15;;;;;;;6.77;3.10;;;6.50;99.90;;;;;;5073439;28;20202;-80
2021/12/02 04:50:41;;;;;;;4.57;3.00;;;6.40;99.90;;;;;;5074148;28;20529;-81
2021/12/02 04:53:07;;;;;;;3.93;2.67;;;6.50;99.90;;;;;;5074332;28;20176;-80
2021/12/02 04:55:33;;;;;;;5.43;3.57;;;6.50;99.90;;;;;;5082343;28;20175;-79
2021/12/02 04:57:59;;;;;;;5.30;3.00;;;6.50;99.90;;;;;;5087274;28;20163;-80
2021/12/02 05:00:25;;;;;;;4.57;3.70;;;6.50;99.90;;;;;;5082022;28;20183;-80
2021/12/02 05:02:51;;;;;;;5.90;2.43;;;6.50;99.90;;;;;;5076179;28;20187;-81
2021/12/02 05:05:17;;;;;;;4.53;2.73;;;;;;;;;;5082410;28;20175;-80
2021/12/02 05:07:44;;;;;;;4.73;2.93;;;;;;;;;;5098264;28;20226;-80
2021/12/02 05:10:10;;;;;;;3.37;2.10;;;6.50;99.90;;;;;;5098228;28;20159;-80
2021/12/02 05:12:36;;;;;;;7.30;3.10;;;6.50;99.90;;;;;;5097613;28;20283;-84
2021/12/02 05:15:03;;;;;;;15.87;8.47;;;6.60;99.90;;;;;;5096087;28;20183;-81
2021/12/02 05:17:29;;;;;;;6.03;4.57;;;6.50;99.90;;;;;;5078506;28;20171;-80
2021/12/02 05:19:55;;;;;;;5.70;2.70;;;6.50;99.90;;;;;;5059008;28;20274;-80
2021/12/02 05:22:21;;;;;;;5.47;3.80;;;6.50;99.90;;;;;;5080719;28;20187;-81
2021/12/02 05:24:46;;;;;;;217.13;86.77;;;6.50;99.90;;;;;;5094247;28;20224;-80
2021/12/02 05:27:14;;;;;;;49.53;19.17;;;6.50;99.90;;;;;;5080444;28;20258;-83
2021/12/02 05:29:40;;;;;;;109.90;49.60;;;6.40;99.90;;;;;;5080151;28;20175;-81
2021/12/02 05:32:06;;;;;;;19.47;7.83;;;6.40;99.90;;;;;;5074736;28;20252;-81
2021/12/02 05:34:31;;;;;;;10.90;5.93;;;6.40;99.90;;;;;;5073265;28;20182;-81
2021/12/02 05:36:57;;;;;;;8.00;4.83;;;6.40;99.90;;;;;;5055538;28;20176;-80
2021/12/02 05:39:23;;;;;;;4.10;3.03;;;6.50;99.90;;;;;;5072469;28;20183;-80
2021/12/02 05:41:53;;;;;;;4.40;3.00;;;6.50;99.90;;;;;;5054885;28;20184;-80
2021/12/02 05:44:19;;;;;;;4.20;3.03;;;6.50;99.90;;;;;;5071944;28;20228;-79
2021/12/02 05:46:44;;;;;;;2.30;2.00;;;6.50;99.90;;;;;;5072530;28;20179;-80
2021/12/02 05:49:10;;;;;;;3.73;2.27;;;6.50;99.90;;;;;;5070958;28;20207;-79
2021/12/02 05:51:36;;;;;;;6.13;2.80;;;6.60;99.90;;;;;;5062892;28;20179;-82
2021/12/02 05:54:02;;;;;;;5.23;3.20;;;6.60;99.90;;;;;;5093187;28;20175;-81
2021/12/02 05:56:27;;;;;;;6.20;3.87;;;6.60;99.90;;;;;;5094689;28;20178;-83
2021/12/02 05:58:53;;;;;;;4.43;3.37;;;6.70;99.90;;;;;;5088009;28;20608;-81
2021/12/02 06:01:19;;;;;;;7.43;3.43;;;6.70;99.90;;;;;;5085782;28;20198;-79
2021/12/02 06:03:44;;;;;;;3.67;2.60;;;6.70;99.90;;;;;;5072943;28;20190;-79
2021/12/02 06:06:10;;;;;;;7.93;4.20;;;;;;;;;;5090542;28;20186;-80
2021/12/02 06:08:37;;;;;;;3.90;2.73;;;6.70;99.90;;;;;;5088842;28;20210;-84
2021/12/02 06:11:02;;;;;;;9.10;3.90;;;6.70;99.90;;;;;;5054585;28;20623;-79
2021/12/02 06:13:28;;;;;;;19.57;12.63;;;6.70;99.90;;;;;;5089610;28;20289;-79
2021/12/02 06:15:54;;;;;;;7.20;5.50;;;6.70;99.90;;;;;;5089394;28;20666;-80
2021/12/02 06:18:20;;;;;;;4.13;2.70;;;6.80;99.90;;;;;;5090769;28;20246;-80
2021/12/02 06:20:51;;;;;;;4.83;2.77;;;6.80;99.90;;;;;;5089852;28;20191;-78
2021/12/02 06:23:17;;;;;;;4.50;2.40;;;6.90;99.90;;;;;;5089785;28;20189;-80
2021/12/02 06:25:46;;;;;;;3.33;2.30;;;6.90;99.90;;;;;;5088008;28;20190;-79
2021/12/02 06:28:12;;;;;;;3.33;1.53;;;6.80;99.90;;;;;;5071228;28;20290;-79
2021/12/02 06:30:38;;;;;;;5.10;2.40;;;6.80;99.90;;;;;;5086729;28;20191;-80
2021/12/02 06:33:04;;;;;;;2.67;2.20;;;6.80;99.90;;;;;;5084660;28;20734;-81
2021/12/02 06:35:30;;;;;;;6.60;2.33;;;6.80;99.90;;;;;;5083747;28;20259;-80
2021/12/02 06:37:57;;;;;;;2.77;2.23;;;6.80;99.90;;;;;;5086740;28;20340;-79
2021/12/02 06:40:23;;;;;;;5.90;2.70;;;6.70;99.90;;;;;;5075255;28;20187;-79
2021/12/02 06:42:49;;;;;;;3.00;2.23;;;6.80;99.90;;;;;;5081725;28;20201;-81
2021/12/02 06:45:15;;;;;;;4.50;3.17;;;6.80;99.90;;;;;;5066821;28;20270;-81
2021/12/02 06:47:41;;;;;;;5.13;2.80;;;6.80;99.90;;;;;;5061229;28;20223;-84
2021/12/02 06:50:16;;;;;;;4.13;2.50;;;6.70;99.90;;;;;;5085842;28;20265;-80
2021/12/02 06:52:42;;;;;;;2.50;1.93;;;6.80;99.90;;;;;;5090464;28;20189;-83
2021/12/02 06:55:09;;;;;;;3.43;3.00;;;6.80;99.90;;;;;;5093240;28;20186;-81
2021/12/02 06:57:34;;;;;;;4.73;2.60;;;6.70;99.90;;;;;;5092319;28;20194;-84
2021/12/02 07:00:06;;;;;;;3.47;2.63;;;6.70;99.90;;;;;;5089143;28;20186;-80
2021/12/02 07:02:32;;;;;;;4.97;3.80;;;6.70;99.90;;;;;;5092998;28;20220;-79
2021/12/02 07:04:58;;;;;;;7.73;4.10;;;6.60;99.90;;;;;;5073796;28;20263;-79
2021/12/02 07:07:26;;;;;;;7.20;4.67;;;6.60;99.90;;;;;;5089102;28;20556;-80
2021/12/02 07:09:52;;;;;;;5.93;4.13;;;6.60;99.90;;;;;;5089207;28;20210;-80
2021/12/02 07:12:21;;;;;;;6.23;3.43;;;6.60;99.90;;;;;;5064279;28;20303;-80
2021/12/02 07:14:48;;;;;;;7.60;4.20;;;;;;;;;;5088402;28;20670;-79
2021/12/02 07:17:14;;;;;;;4.30;2.97;;;;;;;;;;5091671;28;20758;-79
2021/12/02 07:19:40;;;;;;;5.17;2.87;;;6.50;99.90;;;;;;5086499;28;20191;-79
2021/12/02 07:22:06;;;;;;;4.37;3.07;;;6.50;99.90;;;;;;5092788;28;20210;-78
2021/12/02 07:24:32;;;;;;;5.80;2.83;;;6.40;99.90;;;;;;5088638;28;20275;-81
2021/12/02 07:26:58;;;;;;;6.40;3.60;;;6.40;99.90;;;;;;5092734;28;20646;-81
2021/12/02 07:29:24;;;;;;;8.97;3.47;;;6.30;99.90;;;;;;5089872;28;20206;-82
2021/12/02 07:31:51;;;;;;;7.43;4.00;;;6.30;99.90;;;;;;5082002;28;20193;-81
2021/12/02 07:34:17;;;;;;;6.50;3.93;;;6.30;99.90;;;;;;5061843;28;20248;-81
2021/12/02 07:36:44;;;;;;;4.77;3.40;;;6.30;99.90;;;;;;5091387;28;20263;-80
2021/12/02 07:39:10;;;;;;;6.03;3.40;;;6.30;99.90;;;;;;5091029;28;20195;-79
2021/12/02 07:41:39;;;;;;;5.87;3.60;;;6.30;99.90;;;;;;5090622;28;20243;-81
2021/12/02 07:44:06;;;;;;;5.53;3.57;;;;;;;;;;5090979;28;20178;-81
2021/12/02 07:46:31;;;;;;;4.97;3.37;;;6.40;99.90;;;;;;5091264;28;20190;-80
2021/12/02 07:48:58;;;;;;;4.80;3.33;;;6.40;99.90;;;;;;5083887;28;20213;-79
2021/12/02 07:51:29;;;;;;;8.43;4.53;;;6.40;99.90;;;;;;5092605;28;20279;-82
2021/12/02 07:53:55;;;;;;;7.87;3.90;;;6.50;99.90;;;;;;5092132;28;21081;-82
2021/12/02 07:56:23;;;;;;;6.47;3.40;;;6.50;99.90;;;;;;5074441;28;20270;-80
2021/12/02 07:58:50;;;;;;;8.27;3.97;;;6.60;99.90;;;;;;5083725;28;20190;-83
2021/12/02 08:01:17;;;;;;;6.67;3.00;;;6.70;99.90;;;;;;5092531;28;20186;-80
2021/12/02 08:03:44;;;;;;;5.20;3.87;;;6.70;99.90;;;;;;5093487;28;20185;-81
2021/12/02 08:06:11;;;;;;;5.83;2.90;;;6.80;99.90;;;;;;5091860;28;20182;-81
2021/12/02 08:08:40;;;;;;;6.77;3.43;;;6.90;99.90;;;;;;5091906;28;20206;-80
2021/12/02 08:11:07;;;;;;;5.90;2.83;;;6.90;99.90;;;;;;5087948;28;20214;-80
2021/12/02 08:13:33;;;;;;;4.20;2.83;;;7.00;99.90;;;;;;5105415;28;20217;-79
2021/12/02 08:15:58;;;;;;;6.27;3.10;;;7.10;99.90;;;;;;5111030;28;20175;-80
2021/12/02 08:18:25;;;;;;;4.70;2.97;;;7.20;99.90;;;;;;5075387;28;20777;-79
2021/12/02 08:20:50;;;;;;;4.33;3.03;;;7.20;99.90;;;;;;5092261;28;20182;-79
2021/12/02 08:23:18;;;;;;;6.53;3.13;;;7.20;99.90;;;;;;5091291;28;20552;-80
2021/12/02 08:25:44;;;;;;;3.17;2.20;;;7.20;99.90;;;;;;5094559;28;20235;-79
2021/12/02 08:28:09;;;;;;;4.27;2.90;;;7.20;99.90;;;;;;5094183;28;20289;-79
2021/12/02 08:30:37;;;;;;;4.53;3.03;;;7.30;99.90;;;;;;5092618;28;20178;-79
2021/12/02 08:33:05;;;;;;;4.87;2.63;;;7.40;99.90;;;;;;5089316;28;20195;-80
2021/12/02 08:35:31;;;;;;;5.47;2.80;;;7.50;99.90;;;;;;5080801;28;20178;-79
2021/12/02 08:38:02;;;;;;;4.17;2.60;;;7.60;99.90;;;;;;5086457;28;20190;-78
2021/12/02 09:30:52;;;;;;;3.77;2.30;;;;;;;;;;5931763;23;20225;-82
2021/12/02 09:38:29;;;;;;;5.30;2.00;;;8.70;99.90;;;;;;5406866;23;20466;-89
2021/12/02 09:40:55;;;;;;;2.23;1.67;;;8.60;99.90;;;;;;4910078;29;20549;-87
2021/12/02 09:43:20;;;;;;;3.00;1.80;;;7.00;99.90;;;;;;4905289;29;20246;-83
2021/12/02 09:45:46;;;;;;;3.77;1.70;;;8.50;99.90;;;;;;4919738;29;20175;-89
2021/12/02 09:48:12;;;;;;;3.30;1.90;;;8.50;99.90;;;;;;4870500;29;20225;-87
2021/12/02 09:50:50;;;;;;;3.17;2.43;;;8.40;99.90;;;;;;4899953;29;20189;-82
2021/12/02 09:53:20;;;;;;;2.63;1.97;;;8.30;99.90;;;;;;4864480;29;20209;-81
2021/12/02 09:56:07;;;;;;;5.77;2.40;;;8.30;99.90;;;;;;4901377;29;20185;-83
2021/12/02 09:58:32;;;;;;;2.90;1.43;;;8.30;99.90;;;;;;4886543;29;20229;-82
2021/12/02 10:01:06;;;;;;;3.60;2.40;;;8.20;99.90;;;;;;4897588;29;20189;-81
2021/12/02 10:03:34;;;;;;;2.83;1.93;;;8.20;99.90;;;;;;4880525;29;20185;-83
2021/12/02 10:06:05;;;;;;;3.00;2.33;;;8.20;99.90;;;;;;4897112;29;20182;-83
2021/12/02 10:08:37;;;;;;;6.27;2.50;;;8.30;99.90;;;;;;4880090;29;20284;-85
2021/12/02 10:11:05;;;;;;;4.23;2.67;;;8.20;99.90;;;;;;4898088;29;20571;-83
2021/12/02 10:13:58;;;;;;;3.10;2.27;;;8.30;99.90;;;;;;4864631;29;20185;-84
2021/12/02 10:16:36;;;;;;;4.03;2.40;;;8.30;99.90;;;;;;4880377;29;20185;-85
2021/12/02 10:19:23;;;;;;;4.10;2.10;;;8.40;99.90;;;;;;4882416;29;20219;-86
2021/12/02 10:21:54;;;;;;;3.23;2.07;;;8.50;99.90;;;;;;4881316;29;20193;-84
2021/12/02 10:24:26;;;;;;;4.07;2.47;;;8.60;99.90;;;;;;4880541;29;20245;-84
2021/12/02 10:26:59;;;;;;;4.13;2.33;;;8.70;99.90;;;;;;4895542;29;20177;-83
2021/12/02 10:29:33;;;;;;;3.30;1.90;;;8.70;99.90;;;;;;4897623;29;20208;-83
2021/12/02 10:32:21;;;;;;;3.80;2.10;;;8.80;99.90;;;;;;4900731;29;20599;-84
2021/12/02 10:34:56;;;;;;;3.47;2.43;;;8.80;99.90;;;;;;4898565;29;20177;-83
2021/12/02 10:37:26;;;;;;;4.40;2.30;;;8.90;99.90;;;;;;4900391;29;20209;-85
2021/12/02 10:39:58;;;;;;;6.90;2.53;;;8.90;99.90;;;;;;4883280;29;20190;-82
2021/12/02 10:42:24;;;;;;;2.60;1.77;;;8.70;99.90;;;;;;4900781;29;20216;-84
2021/12/02 10:44:50;;;;;;;2.33;1.80;;;8.70;99.90;;;;;;4900504;29;20264;-83
2021/12/02 10:47:17;;;;;;;3.77;1.90;;;8.60;99.90;;;;;;4900501;29;20264;-84
2021/12/02 10:49:50;;;;;;;4.03;2.10;;;8.70;99.90;;;;;;4900325;29;20712;-85
2021/12/02 10:52:37;;;;;;;1.87;1.57;;;8.70;99.90;;;;;;4922454;29;20205;-89
2021/12/02 10:55:12;;;;;;;2.63;1.97;;;8.60;99.90;;;;;;4913842;29;20202;-83
2021/12/02 10:57:45;;;;;;;4.93;2.30;;;8.60;99.90;;;;;;4892655;29;20195;-84
2021/12/02 11:00:14;;;;;;;3.77;2.23;;;8.60;99.90;;;;;;4899093;29;20335;-83
2021/12/02 11:02:46;;;;;;;3.33;2.07;;;8.50;99.90;;;;;;4881653;29;20661;-87
2021/12/02 11:05:22;;;;;;;3.90;2.30;;;8.50;99.90;;;;;;4901296;29;20166;-83
2021/12/02 11:08:09;;;;;;;3.40;2.17;;;8.50;99.90;;;;;;4893135;29;20210;-83
2021/12/02 11:10:36;;;;;;;4.33;2.10;;;8.50;99.90;;;;;;4888817;29;20260;-83
2021/12/02 11:13:02;;;;;;;6.43;2.43;;;8.50;99.90;;;;;;4886450;29;20250;-83
2021/12/02 11:15:30;;;;;;;4.83;2.20;;;8.50;99.90;;;;;;4868764;29;20240;-83
2021/12/02 11:18:07;;;;;;;4.23;2.00;;;8.50;99.90;;;;;;4884030;29;20662;-82
2021/12/02 11:20:41;;;;;;;3.30;2.47;;;8.50;99.90;;;;;;4918749;29;20193;-85
2021/12/02 11:23:11;;;;;;;3.43;2.37;;;8.60;99.90;;;;;;4921046;29;20236;-85
2021/12/02 11:26:17;;;;;;;4.30;2.30;;;8.60;99.90;;;;;;4887733;29;20189;-83
2021/12/02 11:28:43;;;;;;;3.93;2.20;;;8.50;99.90;;;;;;4893293;29;20251;-83
2021/12/02 11:31:13;;;;;;;4.00;2.30;;;8.50;99.90;;;;;;4879419;29;20276;-83
2021/12/02 11:33:41;;;;;;;5.63;2.77;;;8.50;99.90;;;;;;4899229;29;20292;-87
2021/12/02 11:36:16;;;;;;;5.37;2.50;;;8.60;99.90;;;;;;4883219;29;20217;-86
2021/12/02 11:38:42;;;;;;;4.20;1.93;;;8.90;99.90;;;;;;4883255;29;20235;-84
2021/12/02 11:41:08;;;;;;;4.47;2.70;;;9.20;99.90;;;;;;4900024;29;20173;-84
2021/12/02 11:43:39;;;;;;;3.83;2.20;;;9.10;99.90;;;;;;4883143;29;20190;-84
2021/12/02 11:46:08;;;;;;;4.60;2.37;;;9.30;99.90;;;;;;4882714;29;20538;-84
2021/12/02 11:48:38;;;;;;;4.27;2.43;;;9.60;99.90;;;;;;4899539;29;20217;-84
2021/12/02 11:51:08;;;;;;;5.30;2.93;;;9.50;99.90;;;;;;4898127;29;20186;-85
2021/12/02 11:53:34;;;;;;;3.40;2.03;;;9.30;99.90;;;;;;4897198;29;20181;-84
2021/12/02 11:56:04;;;;;;;2.90;2.03;;;9.30;99.90;;;;;;4899963;29;20554;-84
2021/12/02 11:58:30;;;;;;;5.10;2.47;;;9.10;99.90;;;;;;4873230;29;20339;-84
2021/12/02 12:00:56;;;;;;;4.80;2.40;;;8.80;99.90;;;;;;4899630;29;20268;-84
2021/12/02 12:03:32;;;;;;;4.47;2.50;;;8.60;99.90;;;;;;4899590;29;20590;-84
2021/12/02 12:06:07;;;;;;;2.23;1.60;;;8.40;99.90;;;;;;4882331;29;20181;-85
2021/12/02 12:08:38;;;;;;;7.23;2.70;;;8.10;99.90;;;;;;4899859;29;20204;-85
2021/12/02 12:11:23;;;;;;;5.23;2.77;;;8.10;99.90;;;;;;4882862;29;20177;-84
2021/12/02 12:14:01;;;;;;;3.97;2.27;;;7.90;99.90;;;;;;4901663;29;20240;-85
2021/12/02 12:16:31;;;;;;;5.80;2.60;;;7.90;99.90;;;;;;4883006;29;20181;-85
2021/12/02 12:19:19;;;;;;;6.37;2.60;;;7.90;99.90;;;;;;4882959;29;20208;-85
2021/12/02 12:22:10;;;;;;;5.10;3.10;;;7.90;99.90;;;;;;4897646;29;20177;-86
2021/12/02 12:24:51;;;;;;;8.00;3.20;;;7.90;99.90;;;;;;4882891;29;20185;-85
2021/12/02 12:27:21;;;;;;;8.03;4.20;;;7.90;99.90;;;;;;4881991;29;20217;-86
2021/12/02 12:30:09;;;;;;;6.20;3.50;;;7.80;99.90;;;;;;4898850;29;20568;-84
2021/12/02 12:33:07;;;;;;;8.60;3.93;;;7.80;99.90;;;;;;4881734;29;20323;-85
2021/12/02 12:38:33;;;;;;;11.53;4.13;;;7.80;99.90;;;;;;4875686;29;20709;-84
2021/12/02 12:41:10;;;;;;;4.97;3.07;;;7.80;99.90;;;;;;4890138;29;20193;-84
2021/12/02 12:43:45;;;;;;;4.03;2.73;;;7.80;99.90;;;;;;4882310;29;20652;-84
2021/12/02 12:46:16;;;;;;;7.67;2.60;;;7.80;99.90;;;;;;4897329;29;20181;-84
2021/12/02 12:48:42;;;;;;;5.70;3.10;;;7.70;99.90;;;;;;4896579;29;20204;-85
2021/12/02 12:51:16;;;;;;;7.20;3.47;;;7.60;99.90;;;;;;4898096;29;20188;-84
2021/12/02 12:53:44;;;;;;;7.00;2.67;;;7.50;99.90;;;;;;4893645;29;20197;-84
2021/12/02 12:56:13;;;;;;;6.17;2.73;;;7.50;99.90;;;;;;4882178;29;20177;-84
2021/12/02 12:58:57;;;;;;;6.20;2.53;;;7.50;99.90;;;;;;4898353;29;20189;-85
2021/12/02 13:01:26;;;;;;;6.13;3.30;;;7.50;99.90;;;;;;4881534;29;20185;-85
2021/12/02 13:04:09;;;;;;;8.30;3.67;;;7.50;99.90;;;;;;4881801;29;20208;-83
2021/12/02 13:06:59;;;;;;;5.83;3.27;;;7.50;99.90;;;;;;4881719;29;20185;-84
2021/12/02 13:09:48;;;;;;;5.13;3.03;;;7.50;99.90;;;;;;4881850;29;20224;-84
2021/12/02 13:12:18;;;;;;;5.73;2.97;;;7.50;99.90;;;;;;4882682;29;20177;-84
2021/12/02 13:14:46;;;;;;;4.53;3.20;;;7.50;99.90;;;;;;4881702;29;20208;-83
2021/12/02 13:17:39;;;;;;;5.93;3.03;;;7.60;99.90;;;;;;4898687;29;20173;-83
2021/12/02 13:20:29;;;;;;;3.77;2.77;;;7.60;99.90;;;;;;4895439;29;20231;-84
2021/12/02 13:23:16;;;;;;;5.07;2.47;;;7.60;99.90;;;;;;4893391;29;20281;-84
2021/12/02 13:25:50;;;;;;;11.10;3.43;;;7.60;99.90;;;;;;4898800;29;20183;-83
2021/12/02 13:28:19;;;;;;;6.07;3.27;;;7.50;99.90;;;;;;4881816;29;20680;-83
2021/12/02 13:30:59;;;;;;;6.03;2.90;;;7.50;99.90;;;;;;4898958;29;20657;-83
2021/12/02 13:33:41;;;;;;;6.90;2.57;;;7.50;99.90;;;;;;4899199;29;20269;-83
2021/12/02 13:36:10;;;;;;;23.47;3.83;;;7.50;99.90;;;;;;4898694;29;20177;-84
2021/12/02 13:38:37;;;;;;;16.33;3.60;;;7.50;99.90;;;;;;4881479;29;20599;-85
2021/12/02 13:41:20;;;;;;;7.60;2.93;;;7.40;99.90;;;;;;4881712;29;20189;-84
2021/12/02 13:43:53;;;;;;;6.77;2.90;;;7.40;99.90;;;;;;4881680;29;20192;-83
2021/12/02 13:46:29;;;;;;;5.27;3.40;;;7.40;99.90;;;;;;4881644;29;20181;-83
2021/12/02 13:48:56;;;;;;;5.93;2.70;;;7.30;99.90;;;;;;4898341;29;20721;-84
2021/12/02 13:54:19;;;;;;;2.87;1.97;;;7.30;99.90;;;;;;4898466;29;20197;-84
2021/12/02 13:56:45;;;;;;;4.20;2.50;;;7.30;99.90;;;;;;4881397;29;20185;-84
2021/12/02 13:59:16;;;;;;;3.17;2.20;;;7.20;99.90;;;;;;4898394;29;20240;-83
2021/12/02 14:01:57;;;;;;;5.83;2.67;;;7.20;99.90;;;;;;4898002;29;20193;-84
2021/12/02 14:04:25;;;;;;;5.67;2.37;;;7.20;99.90;;;;;;4901363;29;20180;-84
2021/12/02 14:07:09;;;;;;;7.07;2.43;;;7.10;99.90;;;;;;4869935;29;20536;-84
2021/12/02 14:09:50;;;;;;;2.57;1.67;;;7.10;99.90;;;;;;4902065;29;20737;-83
2021/12/02 14:12:18;;;;;;;4.77;2.40;;;7.00;99.90;;;;;;4901981;29;20219;-84
2021/12/02 14:15:03;;;;;;;2.73;1.90;;;6.90;99.90;;;;;;4901977;29;20650;-84
2021/12/02 14:17:32;;;;;;;4.27;2.30;;;6.90;99.90;;;;;;4901167;29;20177;-83
2021/12/02 14:20:08;;;;;;;5.67;2.30;;;6.90;99.90;;;;;;4901344;29;20181;-83
2021/12/02 14:22:37;;;;;;;3.57;2.07;;;6.80;99.90;;;;;;4884492;29;20267;-84
2021/12/02 14:25:06;;;;;;;7.43;2.47;;;6.80;99.90;;;;;;4900874;29;20208;-83
2021/12/02 14:27:32;;;;;;;5.83;2.63;;;6.80;99.90;;;;;;4884558;29;20185;-83
2021/12/02 14:30:21;;;;;;;3.47;2.20;;;6.70;99.90;;;;;;4900783;29;20548;-83
2021/12/02 14:32:47;;;;;;;13.77;6.23;;;6.60;99.90;;;;;;4891262;29;20212;-84
2021/12/02 14:35:22;;;;;;;9.53;3.27;;;6.60;99.90;;;;;;4901006;29;20280;-84